KEED

Details ICAO KEED
Name Needles
Region United States
Timezone America/Los_Angeles (UTC-7.0)
Plans Departing 1
Arriving 8
Stats Elevation 983 ft / 300 m (AMSL)
Location 34.766586° -114.623000°
Runways 2
Magnetic Variation 11.242° E
Sunrise 2018-05-21 12:32:45 UTC / 2018-05-21 05:32:45 Local
Sunset 2018-05-22 02:40:19 UTC / 2018-05-21 19:40:19 Local
Advertisement - Login to hide

Runways

ID Width Length Bearing (true) Bearing (mag) Surface Threshold Offset Overrun Length
02 100 ft / 30 m 4,242 ft / 1,293 m 29.02° 17.78° Asphalt 0 ft / 0 m 700 ft / 213 m
11 100 ft / 30 m 4,999 ft / 1,524 m 119.21° 107.97° Asphalt 0 ft / 0 m 0 ft / 0 m
20 100 ft / 30 m 4,242 ft / 1,293 m 209.03° 197.79° Asphalt 0 ft / 0 m 0 ft / 0 m
29 100 ft / 30 m 4,999 ft / 1,524 m 299.21° 287.97° Asphalt 0 ft / 0 m 0 ft / 0 m

Map

Weather


0- 5 10 15 20 25 30 35+ Temperature / ° C

Clouds and Precipitation
Forecast for 2018-05-21 18:00 UTC. Updated 27 minutes ago

Ground ~20,000 ft ~40,000 ft Winds

METAR

KEED 211456Z AUTO 17003KT 10SM CLR 27/04 A2971 RMK AO2 SLP029 T02720044 51014 $

TAF

TAF KEED 211138Z 2112/2212 23007KT P6SM FEW100 SCT150 OVC250 FM211600 19012G20KT P6SM BKN100 OVC200 FM220100 24011KT P6SM SCT100 BKN150

Frequencies

Recorded 128.32 MHz ASOS
Approach 134.65 MHz LOS ANGELES CNTR
Unicom 123.00 MHz CTAF/UNICOM
Warning: Do not use this data for real-world aviation or navigation. No guarantee of current accuracy is given.